Ana Sayfa
METAR-TAF:

METAR-TAF

Havaalanları :

Yaş, Romanya

Enlem: 47-10N, Boylam: 027-38E, yükseklik: 102 m

Güncel hava durumu gözlemi

Rapor saat 21:00 UTC de 12 dakika önce yapıldı.
Rüzgar doğu/güneydoğudan 9 kt
Sıcaklık 13°C
Nem 100%
Basınç 1023 hPa
Görüş mesafesi: 4500 m
1300 ft yükseklikte parçalı çok bulutlu
2200 ft yükseklikte parçalı çok bulutlu
Pus

METAR: LRIA 162100Z 11009KT 4500 BR BKN013 BKN022 13/13 Q1023

Saat: 23:12 (21:12 UTC)

Tahmin

Rapor saat 20:00 UTC de 1 saat ve 12 dakika önce yapıldı.
Ayın 16'si saat 21 UTC'den ayın 17'si saat 06 UTC'ye kadar geçerli Tahmin
Rüzgar doğu/güneydoğudan 8 kt
Görüş mesafesi: 5000 m
2000 ft yükseklikte parçalı çok bulutlu
Pus
Olasılık 30% :
Geçici
ayın 17'si saat 00 UTC'den ayın 17'si saat 06 UTC'ye kadar
Görüş mesafesi: 1500 m
1000 ft yükseklikte parçalı çok bulutlu
Pus

TAF: LRIA 162000Z 1621/1706 11008KT 5000 BR BKN020 PROB30 TEMPO 1700/1706 1500 BR BKN010

4.000'den fazla havaalanı için hava durumu gözlemleri ve tahminleri (METAR ve TAF raporları).

Kullanılabilir istasyonlar harita üzerinde sarı ve kırmızı noktalarla gösterilir.

İstasyonun adını görmek için fareyi noktanın üzerinde gezdirin.

Sonrasında hava gözlem ve tahminlerini görmek için tıklayın.

Haritayı değiştirmek için: yaklaştırmak için siyah artı işaretli yeşil düğmeye ve uzaklaştırmak için de eksi işaretli düğmeye hızla tıklayın; bitişik haritalar için yeşil okları kullanın.


METAR-TAF: